Providence, Rhode Island
Traffic Map
Current Weather Conditions
Providence, Rhode Island
Scattered Clouds
Scattered Clouds
77°
Feels Like: 79°
Wind Chill: 77° Ceiling: Unl
Heat Index: 79° Visibility: 10mi
Dew Point: 57° Wind: 15mph
Humidity: 50% Direction: 150° (SSE)
Pressure: 30.19in Gusts: 0mph
Raw Report DataKPVD 261951Z 15013KT 10SM SCT250 25/14 A3019 RMK AO2 SLP222 T02500139
Traffic Incident Summary
Active as of:
Severity:
Category:
InformationThere was an issue retrieving the traffic information for this location. Please try a different location or try again shortly.
Advertisements
Track Severe Weather on mobile